createdAt,value
2022-12-04T00:01:03.658Z,99.90
2022-12-04T00:03:54.685Z,99.90
2022-12-04T00:06:43.391Z,99.90
2022-12-04T00:09:32.047Z,99.90
2022-12-04T00:12:22.172Z,99.90
2022-12-04T00:15:27.519Z,99.90
2022-12-04T00:18:16.156Z,99.90
2022-12-04T00:21:06.123Z,99.90
2022-12-04T00:23:55.470Z,99.90
2022-12-04T00:26:44.154Z,99.90
2022-12-04T00:29:34.236Z,99.90
2022-12-04T00:32:22.875Z,99.90
2022-12-04T00:35:11.572Z,99.90
2022-12-04T00:38:00.195Z,99.90
2022-12-04T00:40:51.272Z,99.90
2022-12-04T00:43:40.153Z,99.90
2022-12-04T00:46:31.040Z,99.90
2022-12-04T00:49:20.074Z,99.90
2022-12-04T00:52:08.705Z,99.90
2022-12-04T00:54:57.521Z,99.90
2022-12-04T00:57:46.488Z,99.90
2022-12-04T01:00:35.584Z,99.90
2022-12-04T01:03:25.682Z,99.90
2022-12-04T01:06:20.917Z,99.90
2022-12-04T01:09:09.631Z,99.90
2022-12-04T01:11:58.282Z,99.90
2022-12-04T01:14:46.957Z,99.90
2022-12-04T01:17:35.603Z,99.90
2022-12-04T01:20:26.189Z,99.90
2022-12-04T01:23:14.836Z,99.90
2022-12-04T01:26:03.538Z,99.90
2022-12-04T01:28:52.298Z,99.90
2022-12-04T01:31:41.050Z,99.70
2022-12-04T01:34:29.767Z,99.90
2022-12-04T01:37:19.851Z,99.40
2022-12-04T01:40:14.120Z,99.30
2022-12-04T01:43:02.774Z,99.70
2022-12-04T01:45:54.109Z,99.80
2022-12-04T01:48:47.110Z,99.80
2022-12-04T01:51:40.084Z,99.70
2022-12-04T01:54:33.420Z,99.80
2022-12-04T01:57:24.944Z,99.40
2022-12-04T02:00:16.279Z,99.50
2022-12-04T02:03:05.192Z,99.80
2022-12-04T02:05:53.936Z,99.80
2022-12-04T02:08:42.696Z,99.50
2022-12-04T02:11:40.083Z,99.40
2022-12-04T02:14:35.963Z,99.90
2022-12-04T02:17:29.851Z,99.80
2022-12-04T02:20:29.892Z,99.50
2022-12-04T02:23:35.298Z,99.90
2022-12-04T02:26:44.524Z,99.10
2022-12-04T02:29:40.809Z,99.70
2022-12-04T02:32:37.501Z,99.80
2022-12-04T02:35:30.367Z,99.60
2022-12-04T02:38:25.157Z,99.80
2022-12-04T02:41:18.621Z,99.80
2022-12-04T02:44:12.132Z,99.00
2022-12-04T02:47:06.506Z,99.00
2022-12-04T02:49:59.826Z,99.80
2022-12-04T02:52:52.601Z,99.30
2022-12-04T02:55:46.298Z,99.50
2022-12-04T02:58:40.578Z,99.70
2022-12-04T03:01:34.358Z,99.90
2022-12-04T03:04:27.323Z,99.50
2022-12-04T03:07:21.488Z,99.60
2022-12-04T03:10:15.351Z,98.30
2022-12-04T03:13:10.188Z,98.50
2022-12-04T03:16:05.498Z,98.70
2022-12-04T03:18:58.148Z,97.70
2022-12-04T03:21:52.975Z,96.80
2022-12-04T03:24:46.820Z,97.20
2022-12-04T03:27:40.719Z,96.60
2022-12-04T03:30:34.173Z,96.70
2022-12-04T03:33:31.126Z,97.30
2022-12-04T03:36:24.471Z,97.70
2022-12-04T03:39:22.580Z,97.70
2022-12-04T03:42:19.561Z,98.10
2022-12-04T03:45:16.174Z,98.50
2022-12-04T03:48:08.880Z,98.50
2022-12-04T03:51:02.711Z,98.40
2022-12-04T03:53:56.140Z,97.70
2022-12-04T03:56:50.106Z,97.30
2022-12-04T03:59:41.830Z,97.40
2022-12-04T04:02:35.958Z,97.40
2022-12-04T04:05:26.996Z,97.70
2022-12-04T04:08:33.859Z,97.90
2022-12-04T04:11:26.609Z,97.60
2022-12-04T04:14:37.309Z,97.50
2022-12-04T04:18:03.406Z,97.20
2022-12-04T04:21:14.169Z,97.30
2022-12-04T04:24:17.068Z,97.40
2022-12-04T04:27:06.326Z,97.80
2022-12-04T04:29:56.514Z,96.50
2022-12-04T04:32:50.334Z,97.30
2022-12-04T04:35:48.489Z,97.60
2022-12-04T04:38:44.565Z,97.10
2022-12-04T04:41:41.951Z,96.90
2022-12-04T04:44:39.985Z,97.10
2022-12-04T04:47:34.902Z,97.00
2022-12-04T04:50:24.249Z,96.90
2022-12-04T04:53:17.356Z,96.20
2022-12-04T04:56:08.098Z,95.90
2022-12-04T04:58:56.715Z,95.30
2022-12-04T05:01:47.656Z,96.30
2022-12-04T05:04:37.747Z,97.00
2022-12-04T05:07:26.571Z,96.60
2022-12-04T05:10:15.287Z,97.10
2022-12-04T05:13:03.968Z,97.20
2022-12-04T05:15:58.709Z,97.60
2022-12-04T05:19:07.783Z,97.40
2022-12-04T05:21:58.485Z,98.60
2022-12-04T05:24:47.113Z,98.30
2022-12-04T05:27:35.862Z,98.50
2022-12-04T05:30:24.482Z,99.00
2022-12-04T05:33:13.133Z,98.90
2022-12-04T05:36:03.381Z,98.50
2022-12-04T05:38:53.549Z,99.10
2022-12-04T05:41:42.304Z,98.90
2022-12-04T05:44:31.224Z,99.70
2022-12-04T05:47:19.997Z,98.80
2022-12-04T05:50:10.911Z,98.50
2022-12-04T05:52:59.821Z,99.00
2022-12-04T05:55:59.111Z,99.40
2022-12-04T05:58:48.296Z,99.90
2022-12-04T06:01:37.040Z,99.90
2022-12-04T06:04:25.842Z,99.90
2022-12-04T06:07:14.514Z,99.90
2022-12-04T06:10:03.355Z,99.90
2022-12-04T06:12:57.755Z,99.70
2022-12-04T06:15:46.475Z,99.70
2022-12-04T06:18:35.139Z,99.90
2022-12-04T06:21:26.018Z,99.80
2022-12-04T06:24:16.215Z,99.90
2022-12-04T06:27:26.703Z,99.70
2022-12-04T06:30:15.540Z,99.50
2022-12-04T06:33:04.284Z,99.90
2022-12-04T06:36:00.372Z,99.90
2022-12-04T06:38:49.234Z,99.90
2022-12-04T06:41:37.946Z,99.90
2022-12-04T06:44:26.694Z,99.90
2022-12-04T06:47:16.730Z,99.90
2022-12-04T06:50:06.574Z,99.90
2022-12-04T06:52:55.236Z,99.90
2022-12-04T06:55:49.974Z,99.90
2022-12-04T06:58:38.955Z,99.90
2022-12-04T07:01:29.967Z,99.90
2022-12-04T07:04:20.146Z,99.90
2022-12-04T07:07:10.117Z,99.90
2022-12-04T07:09:58.878Z,99.90
2022-12-04T07:12:47.614Z,99.90
2022-12-04T07:15:37.746Z,99.90
2022-12-04T07:18:26.432Z,99.50
2022-12-04T07:21:19.134Z,99.90
2022-12-04T07:24:08.237Z,99.20
2022-12-04T07:26:56.992Z,99.90
2022-12-04T07:29:45.632Z,99.70
2022-12-04T07:32:34.258Z,99.70
2022-12-04T07:35:22.937Z,99.40
2022-12-04T07:38:13.005Z,99.60
2022-12-04T07:41:02.910Z,99.40
2022-12-04T07:43:51.669Z,99.90
2022-12-04T07:46:40.414Z,99.90
2022-12-04T07:49:29.168Z,99.80
2022-12-04T07:52:17.823Z,99.20
2022-12-04T07:55:09.293Z,99.20
2022-12-04T07:57:57.955Z,99.90
2022-12-04T08:00:46.841Z,99.90
2022-12-04T08:03:35.590Z,99.90
2022-12-04T08:06:27.177Z,99.90
2022-12-04T08:09:15.827Z,99.90
2022-12-04T08:12:06.077Z,99.90
2022-12-04T08:14:54.758Z,99.90
2022-12-04T08:17:43.413Z,99.90
2022-12-04T08:20:32.107Z,99.90
2022-12-04T08:23:20.835Z,99.90
2022-12-04T08:26:10.302Z,99.90
2022-12-04T08:29:01.425Z,99.90
2022-12-04T08:31:50.107Z,99.90
2022-12-04T08:34:38.889Z,99.90
2022-12-04T08:37:27.696Z,99.90
2022-12-04T08:40:17.564Z,99.90
2022-12-04T08:43:06.216Z,99.90
2022-12-04T08:46:00.672Z,99.90
2022-12-04T08:48:49.349Z,99.90
2022-12-04T08:51:38.053Z,99.90
2022-12-04T08:54:29.402Z,99.90
2022-12-04T08:57:20.487Z,99.90
2022-12-04T09:00:10.259Z,99.90
2022-12-04T09:03:00.411Z,99.90
2022-12-04T09:05:49.514Z,99.90
2022-12-04T09:08:38.820Z,99.90
2022-12-04T09:11:29.749Z,99.90
2022-12-04T09:14:19.306Z,99.90
2022-12-04T09:17:08.045Z,99.90
2022-12-04T09:20:01.214Z,99.90
2022-12-04T09:23:03.259Z,99.90
2022-12-04T09:25:53.038Z,99.90
2022-12-04T09:28:41.663Z,99.90
2022-12-04T09:31:30.988Z,99.90
2022-12-04T09:34:19.702Z,99.90
2022-12-04T09:37:09.822Z,99.90
2022-12-04T09:39:58.449Z,99.90
2022-12-04T09:42:53.521Z,99.90
2022-12-04T09:45:46.380Z,99.90
2022-12-04T09:48:38.809Z,99.90
2022-12-04T09:51:28.610Z,99.90
2022-12-04T09:54:20.853Z,99.90
2022-12-04T09:57:16.964Z,99.90
2022-12-04T10:00:07.341Z,99.90
2022-12-04T10:03:00.227Z,99.90
2022-12-04T10:05:56.049Z,99.90
2022-12-04T10:08:47.718Z,99.90
2022-12-04T10:11:47.405Z,99.90
2022-12-04T10:14:50.196Z,99.90
2022-12-04T10:17:52.697Z,99.90
2022-12-04T10:21:03.999Z,99.90
2022-12-04T10:24:03.085Z,99.90
2022-12-04T10:26:56.053Z,99.90
2022-12-04T10:29:48.212Z,99.90
2022-12-04T10:32:37.824Z,99.90
2022-12-04T10:35:29.557Z,99.90
2022-12-04T10:38:30.054Z,99.90
2022-12-04T10:41:25.893Z,99.90
2022-12-04T10:44:18.441Z,99.90
2022-12-04T10:47:08.104Z,99.90
2022-12-04T10:50:01.787Z,99.90
2022-12-04T10:52:51.017Z,99.90
2022-12-04T10:55:39.975Z,99.90
2022-12-04T10:58:30.271Z,99.90
2022-12-04T11:01:23.827Z,99.90
2022-12-04T11:04:22.796Z,99.90
2022-12-04T11:07:20.460Z,99.90
2022-12-04T11:10:22.541Z,99.90
2022-12-04T11:13:17.657Z,99.90
2022-12-04T11:16:07.606Z,99.90
2022-12-04T11:18:58.929Z,99.90
2022-12-04T11:21:47.839Z,99.90
2022-12-04T11:24:38.130Z,99.90
2022-12-04T11:27:32.852Z,99.90
2022-12-04T11:30:25.778Z,99.90
2022-12-04T11:33:19.369Z,99.90
2022-12-04T11:36:21.069Z,99.90
2022-12-04T11:39:18.925Z,99.90
2022-12-04T11:42:17.956Z,99.90
2022-12-04T11:45:21.552Z,99.90
2022-12-04T11:48:17.160Z,99.90
2022-12-04T11:51:17.338Z,99.90
2022-12-04T11:54:15.466Z,99.90
2022-12-04T11:57:13.233Z,99.90
2022-12-04T12:00:12.731Z,99.90
2022-12-04T12:03:12.696Z,99.90
2022-12-04T12:06:30.654Z,99.90
2022-12-04T12:09:28.987Z,99.90
2022-12-04T12:12:22.517Z,99.90
2022-12-04T12:15:20.553Z,99.90
2022-12-04T12:18:23.625Z,99.90
2022-12-04T12:21:19.157Z,99.90
2022-12-04T12:24:25.730Z,99.90
2022-12-04T12:27:34.249Z,99.90
2022-12-04T12:30:24.763Z,99.90
2022-12-04T12:33:19.434Z,99.90
2022-12-04T12:36:11.162Z,99.90
2022-12-04T12:39:04.266Z,99.90
2022-12-04T12:41:56.981Z,99.90
2022-12-04T12:44:54.841Z,99.90
2022-12-04T12:47:50.480Z,99.90
2022-12-04T12:50:45.333Z,99.90
2022-12-04T12:53:39.976Z,99.90
2022-12-04T12:56:38.409Z,99.90
2022-12-04T12:59:29.324Z,99.90
2022-12-04T13:02:26.670Z,99.90
2022-12-04T13:05:20.199Z,99.90
2022-12-04T13:08:21.242Z,99.90
2022-12-04T13:11:14.147Z,99.90
2022-12-04T13:14:05.227Z,99.90
2022-12-04T13:16:59.711Z,99.90
2022-12-04T13:19:53.944Z,99.90
2022-12-04T13:22:59.419Z,99.90
2022-12-04T13:25:59.968Z,99.90
2022-12-04T13:28:54.873Z,99.90
2022-12-04T13:31:53.652Z,99.90
2022-12-04T13:34:56.225Z,99.90
2022-12-04T13:38:00.080Z,99.90
2022-12-04T13:40:54.244Z,99.90
2022-12-04T13:43:49.928Z,99.90
2022-12-04T13:46:42.203Z,99.90
2022-12-04T13:49:32.485Z,99.90
2022-12-04T13:52:40.672Z,99.90
2022-12-04T13:55:32.965Z,99.90
2022-12-04T13:58:28.936Z,99.90
2022-12-04T14:01:31.028Z,99.90
2022-12-04T14:04:27.726Z,99.90
2022-12-04T14:07:28.897Z,99.90
2022-12-04T14:10:30.336Z,99.90
2022-12-04T14:13:22.690Z,99.90
2022-12-04T14:16:21.388Z,99.90
2022-12-04T14:19:25.634Z,99.90
2022-12-04T14:22:30.301Z,99.90
2022-12-04T14:25:40.621Z,99.90
2022-12-04T14:28:46.340Z,99.90
2022-12-04T14:31:39.611Z,99.90
2022-12-04T14:34:31.869Z,99.90
2022-12-04T14:37:32.032Z,99.90
2022-12-04T14:40:27.137Z,99.90
2022-12-04T14:43:20.309Z,99.90
2022-12-04T14:46:15.406Z,99.90
2022-12-04T14:49:18.528Z,99.90
2022-12-04T14:52:14.951Z,99.90
2022-12-04T14:55:15.894Z,99.90
2022-12-04T14:58:34.700Z,99.90
2022-12-04T15:01:28.985Z,99.90
2022-12-04T15:04:25.005Z,99.90
2022-12-04T15:07:22.184Z,99.90
2022-12-04T15:10:38.776Z,99.90
2022-12-04T15:13:28.313Z,99.90
2022-12-04T15:16:20.070Z,99.90
2022-12-04T15:19:18.161Z,99.90
2022-12-04T15:22:11.935Z,99.90
2022-12-04T15:25:00.834Z,99.90
2022-12-04T15:27:52.898Z,99.90
2022-12-04T15:30:43.833Z,99.90
2022-12-04T15:33:36.870Z,99.90
2022-12-04T15:36:37.043Z,99.90
2022-12-04T15:39:27.976Z,99.90
2022-12-04T15:42:20.293Z,99.90
2022-12-04T15:45:27.924Z,99.90
2022-12-04T15:48:25.419Z,99.90
2022-12-04T15:51:14.887Z,99.90
2022-12-04T15:54:05.338Z,99.90
2022-12-04T15:57:05.695Z,99.90
2022-12-04T15:59:55.230Z,99.90
2022-12-04T16:02:45.531Z,99.90
2022-12-04T16:05:37.400Z,99.90
2022-12-04T16:08:30.845Z,99.90
2022-12-04T16:11:32.313Z,99.90
2022-12-04T16:14:21.205Z,99.90
2022-12-04T16:17:12.005Z,99.90
2022-12-04T16:20:05.764Z,99.90
2022-12-04T16:22:56.248Z,99.90
2022-12-04T16:25:44.936Z,99.90
2022-12-04T16:28:33.620Z,99.90
2022-12-04T16:31:23.648Z,99.90
2022-12-04T16:34:13.612Z,99.90
2022-12-04T16:37:07.915Z,99.90
2022-12-04T16:39:56.603Z,99.90
2022-12-04T16:42:47.980Z,99.90
2022-12-04T16:45:37.122Z,99.90
2022-12-04T16:48:26.253Z,99.90
2022-12-04T16:51:17.888Z,99.90
2022-12-04T16:54:08.073Z,99.90
2022-12-04T16:56:56.701Z,99.90
2022-12-04T16:59:45.402Z,99.90
2022-12-04T17:02:34.097Z,99.90
2022-12-04T17:05:25.123Z,99.90
2022-12-04T17:08:13.967Z,99.90
2022-12-04T17:11:13.793Z,99.90
2022-12-04T17:14:07.049Z,99.90
2022-12-04T17:16:56.563Z,99.90
2022-12-04T17:19:46.632Z,99.90
2022-12-04T17:22:35.375Z,99.90
2022-12-04T17:25:24.823Z,99.90
2022-12-04T17:28:15.034Z,99.90
2022-12-04T17:31:05.800Z,99.90
2022-12-04T17:33:55.086Z,99.90
2022-12-04T17:36:44.706Z,99.90
2022-12-04T17:39:33.521Z,99.90
2022-12-04T17:42:22.236Z,99.90
2022-12-04T17:45:14.575Z,99.90
2022-12-04T17:48:03.404Z,99.90
2022-12-04T17:51:03.848Z,99.90
2022-12-04T17:53:53.104Z,99.90
2022-12-04T17:56:47.662Z,99.90
2022-12-04T17:59:38.136Z,99.90
2022-12-04T18:02:29.272Z,99.90
2022-12-04T18:05:19.112Z,99.90
2022-12-04T18:08:07.871Z,99.90
2022-12-04T18:10:57.320Z,99.90
2022-12-04T18:13:46.354Z,99.90
2022-12-04T18:16:39.098Z,99.90
2022-12-04T18:19:31.263Z,99.90
2022-12-04T18:22:20.568Z,99.90
2022-12-04T18:25:13.805Z,99.90
2022-12-04T18:28:03.922Z,99.90
2022-12-04T18:30:54.925Z,99.90
2022-12-04T18:33:45.025Z,99.90
2022-12-04T18:36:38.821Z,99.90
2022-12-04T18:39:28.426Z,99.90
2022-12-04T18:42:17.126Z,99.90
2022-12-04T18:45:07.294Z,99.90
2022-12-04T18:47:57.858Z,99.90
2022-12-04T18:50:47.068Z,99.90
2022-12-04T18:53:37.608Z,99.90
2022-12-04T18:56:27.808Z,99.90
2022-12-04T18:59:18.391Z,99.90
2022-12-04T19:02:07.085Z,99.90
2022-12-04T19:04:55.873Z,99.90
2022-12-04T19:07:44.613Z,99.90
2022-12-04T19:10:34.740Z,99.90
2022-12-04T19:13:23.465Z,99.90
2022-12-04T19:16:13.470Z,99.90
2022-12-04T19:19:02.910Z,99.90
2022-12-04T19:21:51.668Z,99.90
2022-12-04T19:24:40.382Z,99.90
2022-12-04T19:27:32.637Z,99.90
2022-12-04T19:30:21.400Z,99.90
2022-12-04T19:33:10.100Z,99.90
2022-12-04T19:36:00.925Z,99.90
2022-12-04T19:38:49.850Z,99.90
2022-12-04T19:41:40.874Z,99.90
2022-12-04T19:44:48.715Z,99.90
2022-12-04T19:47:37.897Z,99.90
2022-12-04T19:50:26.542Z,99.90
2022-12-04T19:53:15.261Z,99.90
2022-12-04T19:56:05.372Z,99.90
2022-12-04T19:58:55.110Z,99.90
2022-12-04T20:01:45.828Z,99.90
2022-12-04T20:04:34.618Z,99.90
2022-12-04T20:07:23.350Z,99.90
2022-12-04T20:10:12.803Z,99.90
2022-12-04T20:13:01.526Z,99.90
2022-12-04T20:15:50.272Z,99.90
2022-12-04T20:18:41.317Z,99.90
2022-12-04T20:21:30.972Z,99.90
2022-12-04T20:24:19.677Z,99.90
2022-12-04T20:27:08.354Z,99.90
2022-12-04T20:29:57.335Z,99.90
2022-12-04T20:32:46.547Z,99.90
2022-12-04T20:35:38.717Z,99.90
2022-12-04T20:38:27.465Z,99.90
2022-12-04T20:41:17.326Z,99.90
2022-12-04T20:44:07.535Z,99.90
2022-12-04T20:46:56.241Z,99.90
2022-12-04T20:49:45.411Z,99.90
2022-12-04T20:52:35.444Z,99.90
2022-12-04T20:55:24.108Z,99.90
2022-12-04T20:58:12.733Z,99.90
2022-12-04T21:01:07.440Z,99.90
2022-12-04T21:03:56.227Z,99.90
2022-12-04T21:06:45.658Z,99.90
2022-12-04T21:09:35.755Z,99.90
2022-12-04T21:12:43.427Z,99.90
2022-12-04T21:15:49.800Z,99.90
2022-12-04T21:18:38.714Z,99.90
2022-12-04T21:21:28.264Z,99.90
2022-12-04T21:24:18.352Z,99.90
2022-12-04T21:27:09.568Z,99.90
2022-12-04T21:29:59.974Z,99.90
2022-12-04T21:32:48.762Z,99.90
2022-12-04T21:35:40.989Z,99.90
2022-12-04T21:38:30.077Z,99.90
2022-12-04T21:41:32.868Z,99.90
2022-12-04T21:44:23.415Z,99.90
2022-12-04T21:47:12.070Z,99.90
2022-12-04T21:50:01.059Z,99.90
2022-12-04T21:52:49.879Z,99.90
2022-12-04T21:55:38.553Z,99.90
2022-12-04T21:58:29.091Z,99.90
2022-12-04T22:01:20.903Z,99.90
2022-12-04T22:04:09.630Z,99.90
2022-12-04T22:06:58.313Z,99.90
2022-12-04T22:09:46.974Z,99.90
2022-12-04T22:12:52.136Z,99.90
2022-12-04T22:15:44.769Z,99.90
2022-12-04T22:18:35.607Z,99.90
2022-12-04T22:21:24.879Z,99.90
2022-12-04T22:24:13.873Z,99.90
2022-12-04T22:27:02.516Z,99.90
2022-12-04T22:29:51.571Z,99.90
2022-12-04T22:32:40.435Z,99.90
2022-12-04T22:35:30.556Z,99.90
2022-12-04T22:38:19.196Z,99.90
2022-12-04T22:41:13.095Z,99.90
2022-12-04T22:44:01.868Z,99.90
2022-12-04T22:46:50.627Z,99.90
2022-12-04T22:49:39.404Z,99.90
2022-12-04T22:52:30.792Z,99.90
2022-12-04T22:55:19.577Z,99.90
2022-12-04T22:58:08.644Z,99.90
2022-12-04T23:00:57.316Z,99.90
2022-12-04T23:03:46.164Z,99.90
2022-12-04T23:06:35.679Z,99.90
2022-12-04T23:09:26.211Z,99.90
2022-12-04T23:12:15.171Z,99.90
2022-12-04T23:15:03.872Z,99.90
2022-12-04T23:17:53.405Z,99.90
2022-12-04T23:20:42.235Z,99.90
2022-12-04T23:23:30.912Z,99.90
2022-12-04T23:26:22.787Z,99.90
2022-12-04T23:29:44.392Z,99.90
2022-12-04T23:32:20.529Z,99.90
2022-12-04T23:35:09.882Z,99.90
2022-12-04T23:37:58.577Z,99.90
2022-12-04T23:40:47.319Z,99.90
2022-12-04T23:43:37.957Z,99.90
2022-12-04T23:46:29.081Z,99.90
2022-12-04T23:49:17.884Z,99.90
2022-12-04T23:52:06.767Z,99.90
2022-12-04T23:54:55.412Z,99.90
2022-12-04T23:57:44.191Z,99.90
